Time;durP1;ratioP1;P1;durP2;ratioP2;P2;SDS_P1;SDS_P2;PMS_P1;PMS_P2;Temp;Humidity;BMP_temperature;BMP_pressure;BME280_temperature;BME280_humidity;BME280_pressure;Samples;Min_cycle;Max_cycle;Signal;HPM_P1;HPM_P2
2024/01/20 00:00:14;;;;;;;;;45.33;36.67;;;;;3.21;100.00;102160.69;4866120;29;46499;-82
2024/01/20 00:02:40;;;;;;;;;39.67;34.33;;;;;3.26;100.00;102151.41;4847384;29;45376;-83
2024/01/20 00:05:05;;;;;;;;;36.33;31.67;;;;;3.32;100.00;102154.44;4862846;29;45559;-83
2024/01/20 00:07:32;;;;;;;;;37.00;34.00;;;;;3.38;100.00;102148.69;4865506;29;45803;-82
2024/01/20 00:09:58;;;;;;;;;39.33;35.00;;;;;3.32;100.00;102156.16;4847918;29;45443;-81
2024/01/20 00:12:23;;;;;;;;;43.00;38.67;;;;;3.28;100.00;102165.56;4862847;29;45364;-81
2024/01/20 00:14:48;;;;;;;;;21.50;19.50;;;;;3.24;100.00;102168.81;4875345;29;45368;-81
2024/01/20 00:17:15;;;;;;;;;43.25;37.00;;;;;3.24;100.00;102162.63;4882177;29;45331;-82
2024/01/20 00:19:42;;;;;;;;;32.33;30.00;;;;;3.02;100.00;102157.66;4873527;29;45525;-80
2024/01/20 00:22:09;;;;;;;;;47.33;38.67;;;;;3.09;100.00;102173.94;4863568;29;45256;-81
2024/01/20 00:24:35;;;;;;;;;37.67;36.33;;;;;3.07;100.00;102166.75;4862204;29;44851;-80
2024/01/20 00:27:00;;;;;;;;;40.00;37.25;;;;;3.05;100.00;102149.97;4864925;29;44964;-81
2024/01/20 00:32:01;;;;;;;;;35.33;33.67;;;;;3.11;100.00;102160.88;5202579;23;45767;-81
2024/01/20 00:34:26;;;;;;;;;40.67;38.00;;;;;3.12;100.00;102154.84;4898841;28;45420;-82
2024/01/20 00:36:51;;;;;;;;;43.67;36.00;;;;;3.16;100.00;102167.38;4888340;29;45504;-79
2024/01/20 00:39:17;;;;;;;;;42.67;37.33;;;;;3.17;100.00;102161.28;4900411;29;47016;-81
2024/01/20 00:41:42;;;;;;;;;40.67;32.33;;;;;3.08;100.00;102150.19;4899893;28;44897;-82
2024/01/20 00:44:08;;;;;;;;;50.33;38.67;;;;;3.09;100.00;102167.75;4902800;28;44980;-81
2024/01/20 00:46:34;;;;;;;;;34.67;34.00;;;;;3.07;100.00;102169.38;4901324;29;44986;-81
2024/01/20 00:49:01;;;;;;;;;35.33;31.33;;;;;3.01;100.00;102164.66;4901484;28;47125;-82
2024/01/20 00:51:27;;;;;;;;;41.25;35.50;;;;;3.01;100.00;102159.38;4901978;28;45371;-81
2024/01/20 00:53:52;;;;;;;;;34.67;33.00;;;;;3.00;100.00;102166.34;4901851;28;45086;-82
2024/01/20 00:56:17;;;;;;;;;43.33;33.00;;;;;2.96;100.00;102171.28;4901785;29;44800;-82
2024/01/20 00:58:43;;;;;;;;;36.33;28.33;;;;;3.05;100.00;102187.69;4900371;29;45078;-81
2024/01/20 01:01:08;;;;;;;;;39.50;36.00;;;;;3.12;100.00;102178.50;4901000;29;44882;-82
2024/01/20 01:03:36;;;;;;;;;24.33;24.33;;;;;3.15;100.00;102173.44;4885790;29;44916;-82
2024/01/20 01:06:02;;;;;;;;;28.67;28.33;;;;;3.05;100.00;102160.47;4902034;28;45025;-82
2024/01/20 01:08:29;;;;;;;;;34.33;32.67;;;;;3.18;100.00;102178.91;4884941;29;47148;-82
2024/01/20 01:10:55;;;;;;;;;27.00;26.00;;;;;3.07;100.00;102185.16;4900344;29;44808;-82
2024/01/20 01:13:21;;;;;;;;;34.00;33.67;;;;;3.03;100.00;102172.59;4900101;29;44867;-82
2024/01/20 01:15:46;;;;;;;;;36.00;33.00;;;;;2.93;100.00;102172.00;4900400;29;44841;-81
2024/01/20 01:18:11;;;;;;;;;29.33;27.67;;;;;2.87;100.00;102178.53;4901307;28;45155;-81
2024/01/20 01:20:37;;;;;;;;;39.67;37.33;;;;;2.87;100.00;102189.97;4896825;29;44834;-80
2024/01/20 01:23:04;;;;;;;;;33.00;30.00;;;;;2.82;100.00;102178.22;4866027;29;44702;-81
2024/01/20 01:25:30;;;;;;;;;39.00;37.00;;;;;2.90;100.00;102184.00;4866854;29;44917;-81
2024/01/20 01:27:56;;;;;;;;;37.00;33.67;;;;;2.89;100.00;102192.69;4864922;29;47253;-82
2024/01/20 01:30:24;;;;;;;;;36.67;32.33;;;;;2.80;100.00;102174.59;4865742;29;45435;-82
2024/01/20 01:32:49;;;;;;;;;37.33;32.00;;;;;2.78;100.00;102168.31;4861833;29;44918;-82
2024/01/20 01:35:15;;;;;;;;;15.33;13.00;;;;;2.82;100.00;102172.06;4862197;29;44986;-81
2024/01/20 01:37:40;;;;;;;;;33.67;29.33;;;;;2.83;100.00;102179.13;4861006;29;45016;-81
2024/01/20 01:40:06;;;;;;;;;38.33;35.67;;;;;2.78;100.00;102177.09;4862108;29;44967;-82
2024/01/20 01:42:33;;;;;;;;;40.00;34.33;;;;;2.87;100.00;102196.91;4863633;29;44837;-82
2024/01/20 01:45:00;;;;;;;;;40.33;33.67;;;;;2.90;100.00;102187.53;4862160;29;44945;-82
2024/01/20 01:47:26;;;;;;;;;32.33;30.00;;;;;2.90;100.00;102197.16;4861881;29;48382;-82
2024/01/20 01:49:51;;;;;;;;;43.67;33.67;;;;;3.03;100.00;102198.88;4870299;29;44923;-82
2024/01/20 01:52:17;;;;;;;;;34.33;29.00;;;;;3.23;100.00;102210.75;4882237;29;44971;-82
2024/01/20 01:54:43;;;;;;;;;31.67;27.67;;;;;3.23;100.00;102195.88;4880904;29;44897;-82
2024/01/20 01:57:09;;;;;;;;;37.00;34.00;;;;;3.17;100.00;102193.78;4882446;29;46910;-82
2024/01/20 01:59:34;;;;;;;;;41.00;33.00;;;;;3.25;100.00;102202.16;4896705;29;44883;-82
2024/01/20 02:02:06;;;;;;;;;24.00;23.00;;;;;3.34;100.00;102197.53;4865028;29;45820;-80
2024/01/20 02:04:32;;;;;;;;;37.00;31.67;;;;;3.17;100.00;102199.03;4863695;29;45561;-79
2024/01/20 02:06:57;;;;;;;;;37.00;36.33;;;;;3.27;100.00;102210.16;4862580;29;47100;-79
2024/01/20 02:09:23;;;;;;;;;29.67;28.33;;;;;3.29;100.00;102206.84;4878814;29;45981;-79
2024/01/20 02:11:56;;;;;;;;;38.00;33.67;;;;;3.21;100.00;102208.00;4863945;29;45579;-79
2024/01/20 02:14:21;;;;;;;;;38.00;31.33;;;;;3.17;100.00;102219.13;4864332;29;45456;-79
2024/01/20 02:16:47;;;;;;;;;28.33;27.00;;;;;3.08;100.00;102215.91;4877880;29;47340;-79
2024/01/20 02:19:20;;;;;;;;;32.00;29.00;;;;;3.01;100.00;102209.31;4879124;29;45462;-79
2024/01/20 02:21:45;;;;;;;;;34.00;29.00;;;;;2.94;100.00;102218.47;4864972;29;45707;-79
2024/01/20 02:24:12;;;;;;;;;32.33;32.33;;;;;2.88;100.00;102215.44;4865036;29;45427;-78
2024/01/20 02:26:37;;;;;;;;;28.33;28.00;;;;;2.81;100.00;102207.94;4862823;29;47385;-78
2024/01/20 02:29:02;;;;;;;;;34.67;31.00;;;;;2.93;100.00;102219.31;4862692;29;45458;-78
2024/01/20 02:31:28;;;;;;;;;29.67;27.33;;;;;2.90;100.00;102213.81;4866006;29;45471;-79
2024/01/20 02:33:53;;;;;;;;;23.33;20.00;;;;;2.90;100.00;102213.81;4883491;29;45424;-79
2024/01/20 02:36:18;;;;;;;;;10.67;7.33;;;;;2.89;100.00;102211.06;4881386;29;48902;-80
2024/01/20 02:38:44;;;;;;;;;32.00;30.00;;;;;2.79;100.00;102212.19;4879345;29;45387;-79
2024/01/20 02:41:09;;;;;;;;;30.33;26.33;;;;;2.77;100.00;102216.44;4881702;29;45794;-78
2024/01/20 02:43:35;;;;;;;;;28.33;24.67;;;;;2.82;100.00;102225.53;4883074;29;45474;-78
2024/01/20 02:46:00;;;;;;;;;30.67;27.00;;;;;2.86;100.00;102222.28;4864574;29;47031;-79
2024/01/20 02:48:27;;;;;;;;;28.67;23.33;;;;;3.02;100.00;102213.75;4880637;29;60028;-79
2024/01/20 02:50:52;;;;;;;;;33.67;30.67;;;;;2.95;100.00;102222.00;4865668;29;45488;-79
2024/01/20 02:53:17;;;;;;;;;23.67;22.33;;;;;2.99;100.00;102222.34;4882509;29;45408;-79
2024/01/20 02:55:43;;;;;;;;;29.67;26.00;;;;;2.95;100.00;102216.75;4880618;29;47342;-79
2024/01/20 02:58:08;;;;;;;;;33.33;24.67;;;;;2.90;100.00;102219.06;4882229;29;45689;-80
2024/01/20 03:00:33;;;;;;;;;25.00;23.67;;;;;2.93;100.00;102224.56;4881706;29;45574;-79
2024/01/20 03:02:59;;;;;;;;;34.00;31.33;;;;;2.91;100.00;102226.16;4865267;29;45539;-80
2024/01/20 03:05:24;;;;;;;;;34.00;28.33;;;;;2.95;100.00;102225.56;4881155;29;48154;-79
2024/01/20 03:07:49;;;;;;;;;31.33;21.67;;;;;2.94;100.00;102230.72;4865970;29;45399;-80
2024/01/20 03:10:15;;;;;;;;;28.33;25.67;;;;;2.92;100.00;102227.06;4880723;29;45458;-79
2024/01/20 03:12:41;;;;;;;;;31.00;29.33;;;;;2.87;100.00;102226.75;4881938;29;45471;-79
2024/01/20 03:15:07;;;;;;;;;29.00;27.33;;;;;2.97;100.00;102223.06;4880577;29;47710;-80
2024/01/20 03:17:33;;;;;;;;;26.67;20.33;;;;;2.87;100.00;102216.25;4882056;29;45482;-79
2024/01/20 03:19:59;;;;;;;;;32.00;28.00;;;;;2.85;100.00;102209.97;4881868;29;45514;-80
2024/01/20 03:22:25;;;;;;;;;20.33;15.67;;;;;2.68;100.00;102206.16;4883103;29;45330;-79
2024/01/20 03:24:50;;;;;;;;;28.00;24.67;;;;;2.61;100.00;102211.81;4880954;29;45416;-79
2024/01/20 03:27:19;;;;;;;;;25.67;23.33;;;;;2.71;100.00;102214.28;4880706;29;49751;-79
2024/01/20 03:29:44;;;;;;;;;28.67;26.33;;;;;2.51;100.00;102233.88;4880884;29;45543;-79
2024/01/20 03:32:10;;;;;;;;;33.00;29.00;;;;;2.49;100.00;102225.00;4861527;29;45444;-80
2024/01/20 03:34:36;;;;;;;;;22.33;22.33;;;;;2.47;100.00;102215.19;4877041;29;48320;-80
2024/01/20 03:37:02;;;;;;;;;36.33;25.67;;;;;2.40;100.00;102214.75;4862192;29;45927;-79
2024/01/20 03:39:27;;;;;;;;;27.33;24.33;;;;;2.45;100.00;102229.94;4863275;29;44859;-80
2024/01/20 03:41:52;;;;;;;;;29.67;20.67;;;;;2.55;100.00;102225.44;4861983;29;45779;-80
2024/01/20 03:44:18;;;;;;;;;27.00;23.00;;;;;2.52;100.00;102230.44;4860341;29;45477;-80
2024/01/20 03:46:43;;;;;;;;;23.67;20.00;;;;;2.47;100.00;102228.31;4860707;29;45435;-79
2024/01/20 03:49:08;;;;;;;;;38.33;31.67;;;;;2.47;100.00;102234.47;4859375;29;45644;-80
2024/01/20 03:51:34;;;;;;;;;22.67;22.67;;;;;2.44;100.00;102230.72;4839739;29;45388;-79
2024/01/20 03:54:01;;;;;;;;;27.33;25.67;;;;;2.40;100.00;102229.56;4825590;29;45500;-80
2024/01/20 03:56:27;;;;;;;;;30.33;24.33;;;;;2.42;100.00;102225.34;4826062;29;45402;-80
2024/01/20 03:58:52;;;;;;;;;24.33;24.33;;;;;2.46;100.00;102219.50;4838632;29;45710;-79
2024/01/20 04:01:18;;;;;;;;;27.33;24.00;;;;;2.51;100.00;102217.22;4824798;29;45357;-81
2024/01/20 04:03:43;;;;;;;;;24.67;23.00;;;;;2.41;100.00;102215.66;4825579;29;45985;-80
2024/01/20 04:06:08;;;;;;;;;30.33;26.33;;;;;2.41;100.00;102228.78;4823017;29;45394;-79
2024/01/20 04:08:34;;;;;;;;;23.67;23.00;;;;;2.43;100.00;102236.78;4825548;29;45467;-80
2024/01/20 04:10:59;;;;;;;;;33.33;28.67;;;;;2.42;100.00;102233.22;4826044;29;45533;-80
2024/01/20 04:13:25;;;;;;;;;30.67;27.67;;;;;2.35;100.00;102228.34;4826430;29;45406;-80
2024/01/20 04:16:46;;;;;;;;;29.00;24.00;;;;;2.60;100.00;102231.88;4823705;29;45540;-80
2024/01/20 04:19:12;;;;;;;;;27.67;25.67;;;;;2.38;100.00;102220.69;4840037;29;45482;-79
2024/01/20 04:21:38;;;;;;;;;34.67;28.67;;;;;2.51;100.00;102244.41;4824187;29;45281;-79
2024/01/20 04:24:03;;;;;;;;;26.67;25.33;;;;;2.49;100.00;102238.13;4825081;29;45399;-79
2024/01/20 04:26:29;;;;;;;;;34.00;28.00;;;;;2.40;100.00;102226.94;4824256;29;45494;-79
2024/01/20 04:28:54;;;;;;;;;25.67;25.33;;;;;2.44;100.00;102239.50;4823791;29;45476;-80
2024/01/20 04:31:20;;;;;;;;;28.67;26.33;;;;;2.45;100.00;102238.72;4822865;29;45577;-79
2024/01/20 04:33:45;;;;;;;;;27.33;23.33;;;;;2.44;100.00;102242.13;4841749;29;45502;-78
2024/01/20 04:36:10;;;;;;;;;29.33;25.00;;;;;2.44;100.00;102242.13;4825523;29;53401;-78
2024/01/20 04:38:36;;;;;;;;;35.67;26.00;;;;;2.56;100.00;102231.56;4826033;29;45490;-79
2024/01/20 04:41:01;;;;;;;;;19.67;17.00;;;;;2.46;100.00;102237.00;4843074;29;45620;-79
2024/01/20 04:43:28;;;;;;;;;32.67;26.00;;;;;2.43;100.00;102239.41;4843416;29;46228;-79
2024/01/20 04:45:53;;;;;;;;;33.33;26.00;;;;;2.34;100.00;102245.84;4827669;29;45534;-80
2024/01/20 04:51:41;;;;;;;;;28.67;25.00;;;;;2.55;100.00;102245.53;4842995;29;45464;-79
2024/01/20 04:54:07;;;;;;;;;22.33;19.33;;;;;2.47;100.00;102242.34;4842739;29;46118;-80
2024/01/20 04:56:32;;;;;;;;;29.00;26.00;;;;;2.46;100.00;102255.38;4843455;29;45606;-78
2024/01/20 04:58:57;;;;;;;;;29.00;26.33;;;;;2.39;100.00;102254.03;4826560;29;45484;-79
2024/01/20 05:01:22;;;;;;;;;26.00;25.33;;;;;2.33;100.00;102259.75;4843429;29;45462;-79
2024/01/20 05:03:48;;;;;;;;;27.33;26.00;;;;;2.33;100.00;102264.09;4826409;29;48232;-78
2024/01/20 05:06:13;;;;;;;;;34.33;28.67;;;;;2.33;100.00;102274.59;4843320;29;45415;-78
2024/01/20 05:08:39;;;;;;;;;38.67;34.33;;;;;2.27;100.00;102266.28;4843287;29;45410;-79
2024/01/20 05:11:04;;;;;;;;;32.33;25.67;;;;;2.20;100.00;102267.53;4843777;29;45455;-79
2024/01/20 05:16:51;;;;;;;;;32.33;25.67;;;;;1.96;100.00;102261.41;4845716;29;45460;-79
2024/01/20 05:19:17;;;;;;;;;24.00;18.33;;;;;1.89;100.00;102262.66;4845998;29;47772;-80
2024/01/20 05:21:43;;;;;;;;;27.00;21.67;;;;;1.84;100.00;102250.94;4829531;29;45364;-79
2024/01/20 05:24:10;;;;;;;;;29.33;25.00;;;;;1.75;100.00;102256.41;4846230;29;46355;-79
2024/01/20 05:26:37;;;;;;;;;20.67;16.33;;;;;1.74;100.00;102261.56;4845803;29;45425;-79
2024/01/20 05:29:03;;;;;;;;;31.00;26.67;;;;;1.71;100.00;102259.59;4827301;29;45449;-78
2024/01/20 05:31:31;;;;;;;;;30.33;28.00;;;;;1.70;100.00;102264.75;4845530;29;45371;-78
2024/01/20 05:34:00;;;;;;;;;32.00;29.00;;;;;1.78;100.00;102268.84;4846326;29;46024;-79
2024/01/20 05:36:25;;;;;;;;;30.00;23.00;;;;;1.62;100.00;102264.19;4846078;29;45410;-79
2024/01/20 05:38:51;;;;;;;;;29.00;23.00;;;;;1.57;100.00;102242.84;4846261;29;45321;-79
2024/01/20 05:41:16;;;;;;;;;32.67;23.00;;;;;1.60;100.00;102247.41;4830061;29;45404;-79
2024/01/20 05:43:43;;;;;;;;;29.00;26.33;;;;;1.67;100.00;102243.53;4829006;29;48408;-79
2024/01/20 05:46:08;;;;;;;;;30.00;27.33;;;;;1.55;100.00;102254.00;4851611;29;45424;-79
2024/01/20 05:48:34;;;;;;;;;31.67;26.00;;;;;1.53;100.00;102258.22;4863812;29;45441;-79
2024/01/20 05:51:00;;;;;;;;;19.67;19.00;;;;;1.50;100.00;102260.66;4864859;29;45450;-79
2024/01/20 05:53:25;;;;;;;;;22.67;22.33;;;;;1.52;100.00;102261.66;4865157;29;46671;-79
2024/01/20 05:55:58;;;;;;;;;28.33;25.67;;;;;1.47;100.00;102265.63;4863029;29;45478;-79
2024/01/20 05:58:23;;;;;;;;;35.33;31.00;;;;;1.46;100.00;102266.44;4864984;29;45619;-79
2024/01/20 06:00:49;;;;;;;;;30.00;28.00;;;;;1.46;100.00;102275.22;4865066;29;45498;-79
2024/01/20 06:03:45;;;;;;;;;31.67;26.67;;;;;1.64;100.00;102274.75;4863357;29;45795;-80
2024/01/20 06:06:11;;;;;;;;;29.67;26.67;;;;;1.47;100.00;102278.75;4846993;29;46029;-79
2024/01/20 06:08:37;;;;;;;;;29.00;26.33;;;;;1.43;100.00;102271.44;4864756;29;45473;-79
2024/01/20 06:11:02;;;;;;;;;31.67;24.33;;;;;1.38;100.00;102269.41;4845786;29;45501;-79
2024/01/20 06:13:29;;;;;;;;;28.00;23.67;;;;;1.30;100.00;102267.00;4862858;29;45360;-79
2024/01/20 06:15:55;;;;;;;;;27.33;24.33;;;;;1.27;100.00;102270.28;4864050;29;45450;-79
2024/01/20 06:18:20;;;;;;;;;31.67;27.33;;;;;1.28;100.00;102277.34;4846555;29;45497;-79
2024/01/20 06:20:46;;;;;;;;;35.50;33.25;;;;;1.27;100.00;102272.91;4862188;29;45518;-79
2024/01/20 06:23:11;;;;;;;;;28.67;26.33;;;;;1.23;100.00;102268.22;4861447;29;57076;-78
2024/01/20 06:25:36;;;;;;;;;28.33;24.67;;;;;1.27;100.00;102278.13;4862128;29;45413;-78
2024/01/20 06:28:04;;;;;;;;;32.00;27.50;;;;;1.14;100.00;102257.06;4847411;29;45506;-77
2024/01/20 06:30:30;;;;;;;;;25.33;22.67;;;;;1.18;100.00;102274.84;4864306;29;45500;-78
2024/01/20 06:33:02;;;;;;;;;23.67;19.00;;;;;1.30;100.00;102275.75;4862345;29;45436;-79
2024/01/20 06:35:29;;;;;;;;;32.25;30.00;;;;;1.11;100.00;102272.53;4847232;29;45604;-79
2024/01/20 06:37:54;;;;;;;;;28.00;23.67;;;;;1.10;100.00;102270.72;4864490;29;45439;-79
2024/01/20 06:40:20;;;;;;;;;29.33;28.00;;;;;1.13;100.00;102276.16;4864442;29;45559;-79
2024/01/20 06:42:52;;;;;;;;;35.00;28.50;;;;;1.17;100.00;102279.16;4862943;29;47369;-78
2024/01/20 06:45:17;;;;;;;;;33.33;26.33;;;;;1.18;100.00;102288.84;4863688;29;45870;-80
2024/01/20 06:47:42;;;;;;;;;25.67;25.67;;;;;1.17;100.00;102289.66;4846367;29;45842;-79
2024/01/20 06:50:08;;;;;;;;;21.67;19.67;;;;;1.17;100.00;102300.13;4864476;29;45304;-78
2024/01/20 06:52:33;;;;;;;;;30.00;26.67;;;;;1.15;100.00;102291.25;4864829;29;45320;-78
2024/01/20 06:54:59;;;;;;;;;30.67;30.00;;;;;1.10;100.00;102296.91;4864439;29;45479;-79
2024/01/20 06:57:24;;;;;;;;;31.33;26.33;;;;;1.15;100.00;102317.44;4865066;29;45332;-79
2024/01/20 06:59:50;;;;;;;;;33.33;27.67;;;;;1.12;100.00;102306.72;4847964;29;45817;-78
2024/01/20 07:02:16;;;;;;;;;37.00;29.67;;;;;1.22;100.00;102312.69;4863788;29;47468;-78
2024/01/20 07:04:42;;;;;;;;;30.00;29.33;;;;;1.08;100.00;102328.22;4863716;29;45483;-79
2024/01/20 07:07:07;;;;;;;;;28.67;24.33;;;;;1.06;100.00;102324.56;4864317;29;45924;-79
2024/01/20 07:09:38;;;;;;;;;36.33;31.00;;;;;1.15;100.00;102306.03;4864889;29;45468;-80
2024/01/20 07:12:04;;;;;;;;;32.67;30.00;;;;;1.00;100.00;102316.25;4863764;29;45364;-79
2024/01/20 07:14:29;;;;;;;;;15.67;12.33;;;;;0.94;100.00;102316.66;4861302;29;45496;-79
2024/01/20 07:16:55;;;;;;;;;37.33;33.67;;;;;0.97;100.00;102310.75;4862624;29;45467;-79
2024/01/20 07:19:20;;;;;;;;;33.67;31.00;;;;;0.97;100.00;102318.59;4845638;29;45638;-79
2024/01/20 07:21:45;;;;;;;;;35.00;28.00;;;;;0.97;100.00;102316.94;4861197;29;45709;-79
2024/01/20 07:24:11;;;;;;;;;28.00;27.67;;;;;0.92;100.00;102323.50;4861698;29;45820;-80
2024/01/20 07:26:36;;;;;;;;;23.33;22.00;;;;;0.93;100.00;102332.25;4863241;29;44972;-80
2024/01/20 07:29:01;;;;;;;;;38.67;31.00;;;;;0.89;100.00;102323.28;4846747;29;45471;-80
2024/01/20 07:31:27;;;;;;;;;41.75;31.50;;;;;0.88;100.00;102331.00;4863719;29;45472;-80
2024/01/20 07:33:52;;;;;;;;;39.00;31.50;;;;;0.89;100.00;102331.13;4862658;29;45573;-79
2024/01/20 07:36:24;;;;;;;;;28.75;26.00;;;;;1.06;100.00;102323.66;4864390;29;45451;-80
2024/01/20 07:38:49;;;;;;;;;35.50;27.50;;;;;0.89;100.00;102332.81;4863765;29;45468;-80
2024/01/20 07:41:14;;;;;;;;;39.00;29.75;;;;;0.92;100.00;102318.25;4861617;29;62775;-79
2024/01/20 07:43:41;;;;;;;;;34.75;30.25;;;;;0.97;100.00;102316.94;4862413;29;45766;-80
2024/01/20 07:46:11;;;;;;;;;25.00;25.00;;;;;1.05;100.00;102316.59;4861371;29;45445;-79
2024/01/20 07:48:36;;;;;;;;;46.00;34.50;;;;;0.91;100.00;102321.69;4861930;29;45766;-80
2024/01/20 07:51:02;;;;;;;;;35.00;29.75;;;;;0.92;100.00;102322.59;4845214;29;47512;-79
2024/01/20 07:53:28;;;;;;;;;43.25;37.50;;;;;0.89;100.00;102328.50;4862241;29;45429;-79
2024/01/20 07:55:53;;;;;;;;;30.00;27.00;;;;;0.94;100.00;102334.09;4862332;29;45383;-79
2024/01/20 07:58:19;;;;;;;;;52.75;39.50;;;;;0.98;100.00;102344.03;4861282;29;45528;-79
2024/01/20 08:00:44;;;;;;;;;40.75;33.25;;;;;1.04;100.00;102344.50;4862975;29;46333;-80
2024/01/20 08:03:09;;;;;;;;;36.00;32.25;;;;;1.08;100.00;102337.81;4862859;29;45569;-80
2024/01/20 08:05:35;;;;;;;;;35.75;30.25;;;;;1.10;100.00;102344.97;4861349;29;45442;-81
2024/01/20 08:08:00;;;;;;;;;43.25;37.00;;;;;1.11;100.00;102340.66;4862332;29;45494;-80
2024/01/20 08:10:25;;;;;;;;;39.00;36.50;;;;;1.19;100.00;102350.00;4861038;29;46922;-78
2024/01/20 08:12:51;;;;;;;;;47.75;39.00;;;;;1.26;100.00;102346.19;4860806;29;45530;-78
2024/01/20 08:18:39;;;;;;;;;41.50;34.75;;;;;1.18;100.00;102348.19;4863167;29;45705;-80
2024/01/20 08:21:07;;;;;;;;;42.75;35.75;;;;;1.31;100.00;102345.75;4847344;29;58343;-80
2024/01/20 08:23:34;;;;;;;;;45.75;37.75;;;;;1.23;100.00;102340.69;4846433;29;45539;-81
2024/01/20 08:26:00;;;;;;;;;42.00;36.75;;;;;1.24;100.00;102346.06;4862616;29;45464;-79
2024/01/20 08:28:25;;;;;;;;;46.50;38.50;;;;;1.27;100.00;102342.75;4862607;29;45576;-80
2024/01/20 08:30:51;;;;;;;;;39.75;35.25;;;;;1.35;100.00;102341.63;4862649;29;46650;-79
2024/01/20 08:33:16;;;;;;;;;45.25;38.00;;;;;1.37;100.00;102340.97;4858892;29;45866;-79
2024/01/20 08:35:41;;;;;;;;;42.00;37.50;;;;;1.47;100.00;102336.44;4859216;29;45396;-80
2024/01/20 08:38:07;;;;;;;;;43.00;37.50;;;;;1.55;100.00;102335.31;4859470;29;45556;-79
2024/01/20 08:40:32;;;;;;;;;42.50;37.50;;;;;1.58;100.00;102335.56;4844365;29;45884;-79
2024/01/20 08:42:57;;;;;;;;;41.75;36.75;;;;;1.63;100.00;102344.66;4844707;29;45779;-79
2024/01/20 08:45:23;;;;;;;;;43.50;38.50;;;;;1.59;100.00;102338.25;4842243;29;45596;-82
2024/01/20 08:47:48;;;;;;;;;39.25;35.75;;;;;1.62;100.00;102342.84;4862995;29;45381;-79
2024/01/20 08:53:35;;;;;;;;;36.75;33.25;;;;;1.65;100.00;102347.41;4849306;29;45381;-79
2024/01/20 08:56:01;;;;;;;;;43.33;37.00;;;;;1.64;100.00;102336.00;4860183;29;45310;-79
2024/01/20 08:58:26;;;;;;;;;37.25;32.75;;;;;1.56;100.00;102334.53;4846073;29;45518;-79
2024/01/20 09:00:52;;;;;;;;;41.00;33.00;;;;;1.66;100.00;102349.25;4848209;29;46225;-79
2024/01/20 09:03:17;;;;;;;;;33.25;32.25;;;;;1.68;100.00;102358.16;4862080;29;45712;-79
2024/01/20 09:05:43;;;;;;;;;41.25;32.00;;;;;1.76;100.00;102357.91;4847775;29;45376;-79
2024/01/20 09:08:10;;;;;;;;;37.67;30.67;;;;;1.77;100.00;102348.31;4847807;29;45509;-79
2024/01/20 09:10:36;;;;;;;;;39.75;32.75;;;;;1.73;100.00;102338.41;4847907;29;45579;-80
2024/01/20 09:13:05;;;;;;;;;44.50;40.25;;;;;1.69;100.00;102337.25;4861755;29;45457;-79
2024/01/20 09:15:31;;;;;;;;;40.75;36.50;;;;;1.74;100.00;102346.41;4861541;29;45471;-80
2024/01/20 09:17:57;;;;;;;;;26.33;25.33;;;;;1.74;100.00;102338.53;4845723;29;45482;-80
2024/01/20 09:20:22;;;;;;;;;39.50;32.25;;;;;1.74;100.00;102335.00;4861017;29;47545;-80
2024/01/20 09:22:48;;;;;;;;;31.67;28.33;;;;;1.77;100.00;102332.59;4847202;29;45324;-78
2024/01/20 09:25:14;;;;;;;;;37.00;30.00;;;;;1.77;100.00;102323.00;4846887;29;45395;-79
2024/01/20 09:27:40;;;;;;;;;34.50;32.00;;;;;1.77;100.00;102320.38;4847139;29;45529;-79
2024/01/20 09:30:07;;;;;;;;;37.50;34.75;;;;;1.82;100.00;102317.19;4858644;29;48762;-79
2024/01/20 09:32:33;;;;;;;;;38.50;35.25;;;;;1.85;100.00;102323.59;4849211;29;45469;-79
2024/01/20 09:35:05;;;;;;;;;37.00;32.25;;;;;2.03;100.00;102329.28;4863828;29;45443;-79
2024/01/20 09:37:30;;;;;;;;;35.25;32.00;;;;;1.99;100.00;102337.72;4865799;29;45448;-79
2024/01/20 09:39:57;;;;;;;;;32.50;30.75;;;;;2.03;100.00;102326.66;4862702;29;48231;-79
2024/01/20 09:42:22;;;;;;;;;32.50;29.25;;;;;2.09;100.00;102328.84;4864603;29;45563;-79
2024/01/20 09:44:49;;;;;;;;;31.25;27.50;;;;;2.19;100.00;102323.47;4865668;29;45435;-79
2024/01/20 09:47:14;;;;;;;;;33.00;28.67;;;;;2.11;100.00;102315.03;4864479;29;45428;-79
2024/01/20 09:49:40;;;;;;;;;27.33;25.67;;;;;2.17;100.00;102323.34;4864350;29;47107;-80
2024/01/20 09:52:14;;;;;;;;;29.67;29.67;;;;;2.35;100.00;102330.75;4865384;29;45467;-79
2024/01/20 09:54:54;;;;;;;;;39.00;31.33;;;;;2.37;100.00;102323.91;4848060;29;45360;-80
2024/01/20 09:57:21;;;;;;;;;40.00;32.75;;;;;2.29;100.00;102328.59;4847371;29;45486;-80
2024/01/20 09:59:48;;;;;;;;;42.25;38.00;;;;;2.34;100.00;102323.66;4861423;29;47188;-79
2024/01/20 10:02:17;;;;;;;;;28.50;25.75;;;;;2.50;100.00;102325.69;4861574;29;45477;-80
2024/01/20 10:04:46;;;;;;;;;37.75;33.25;;;;;2.64;100.00;102319.72;4863336;29;45742;-80
2024/01/20 10:07:28;;;;;;;;;23.67;19.00;;;;;2.77;100.00;102321.50;4863266;29;45547;-80
2024/01/20 10:09:54;;;;;;;;;35.67;32.67;;;;;2.69;100.00;102310.44;4847812;29;47076;-80
2024/01/20 10:12:19;;;;;;;;;37.33;32.00;;;;;2.82;100.00;102313.94;4865394;29;45837;-80
2024/01/20 10:14:45;;;;;;;;;29.33;27.67;;;;;2.81;100.00;102307.78;4864050;29;45609;-81
2024/01/20 10:17:10;;;;;;;;;33.33;29.33;;;;;2.79;100.00;102304.16;4861268;29;45403;-80
2024/01/20 10:19:35;;;;;;;;;40.25;33.00;;;;;2.71;100.00;102295.72;4862337;29;47693;-80
2024/01/20 10:22:07;;;;;;;;;33.00;30.00;;;;;2.85;100.00;102304.56;4847323;29;45874;-80
2024/01/20 10:24:32;;;;;;;;;32.33;28.67;;;;;2.73;100.00;102311.59;4863027;29;45390;-80
2024/01/20 10:26:59;;;;;;;;;36.00;31.00;;;;;2.78;100.00;102307.56;4862850;29;45543;-80
2024/01/20 10:29:25;;;;;;;;;30.00;24.67;;;;;2.84;100.00;102313.25;4863196;29;47087;-79
2024/01/20 10:31:50;;;;;;;;;36.33;31.00;;;;;2.92;100.00;102316.41;4862585;29;45434;-80
2024/01/20 10:34:16;;;;;;;;;43.33;35.00;;;;;2.88;100.00;102315.28;4862789;29;45491;-79
2024/01/20 10:36:44;;;;;;;;;40.67;32.33;;;;;2.95;100.00;102307.03;4864188;29;45484;-80
2024/01/20 10:39:14;;;;;;;;;31.33;29.67;;;;;2.90;100.00;102305.78;4863888;29;45370;-79
2024/01/20 10:41:40;;;;;;;;;32.33;30.67;;;;;2.92;100.00;102303.28;4864177;29;45502;-80
2024/01/20 10:44:11;;;;;;;;;34.00;33.00;;;;;3.03;100.00;102290.88;4864317;29;45496;-79
2024/01/20 10:46:44;;;;;;;;;34.00;32.33;;;;;3.23;100.00;102313.28;4863253;29;45402;-81
2024/01/20 10:49:17;;;;;;;;;39.00;33.67;;;;;3.31;100.00;102318.28;4863289;29;48222;-81
2024/01/20 10:51:44;;;;;;;;;37.33;33.33;;;;;3.18;100.00;102286.69;4863714;29;46336;-80
2024/01/20 10:54:12;;;;;;;;;34.00;30.00;;;;;3.35;100.00;102315.06;4864789;29;44839;-80
2024/01/20 10:56:39;;;;;;;;;34.00;29.00;;;;;3.47;100.00;102309.69;4831495;29;45649;-80
2024/01/20 10:59:15;;;;;;;;;36.00;29.33;;;;;3.52;100.00;102307.41;4861582;29;45698;-79
2024/01/20 11:01:42;;;;;;;;;38.67;36.00;;;;;3.56;100.00;102298.91;4860831;29;45593;-79
2024/01/20 11:04:07;;;;;;;;;47.00;35.33;;;;;3.56;100.00;102301.53;4861772;29;45486;-79
2024/01/20 11:06:35;;;;;;;;;36.33;32.00;;;;;3.65;100.00;102296.88;4862782;29;45494;-79
2024/01/20 11:09:01;;;;;;;;;35.00;33.33;;;;;3.56;100.00;102293.66;4862729;29;47405;-79
2024/01/20 11:11:28;;;;;;;;;37.67;34.00;;;;;3.70;100.00;102298.13;4864517;29;45441;-80
2024/01/20 11:14:02;;;;;;;;;31.00;28.33;;;;;3.85;100.00;102297.31;4863343;29;45443;-79
2024/01/20 11:16:32;;;;;;;;;33.33;33.00;;;;;3.83;100.00;102293.66;4847835;29;45321;-80
2024/01/20 11:19:08;;;;;;;;;41.67;34.33;;;;;3.85;100.00;102287.69;4862112;29;47491;-80
2024/01/20 11:21:34;;;;;;;;;40.00;36.67;;;;;3.67;100.00;102292.63;4865162;29;45516;-80